Las Vegas, Nevada
Traffic Map
Current Weather Conditions
Las Vegas, Nevada
Broken Clouds
Broken Clouds
23°
Feels Like: 23°
Wind Chill: 23° Ceiling: 25000
Heat Index: 23° Visibility: 10mi
Dew Point: Wind: 3mph
Humidity: 23% Direction: 40° (NE)
Pressure: 29.87in Gusts: 0mph
Raw Report DataKLAS 012256Z 04003KT 10SM SCT090 BKN250 23/01 A2987 RMK AO2 SLP100 CB DSNT E-SE T02330011 $
Traffic Incident Summary
Active as of:
Severity:
Category:
InformationThere was an issue retrieving the traffic information for this location. Please try a different location or try again shortly.
Advertisements
Track Severe Weather on mobile